sensor_id;sensor_type;location;lat;lon;timestamp;pressure;altitude;pressure_sealevel;temperature;humidity
73860;BME280;62197;51.632;13.700;2023-11-19T00:00:47;100478.09;;;3.79;78.60
73860;BME280;62197;51.632;13.700;2023-11-19T00:03:12;100469.63;;;3.76;78.93
73860;BME280;62197;51.632;13.700;2023-11-19T00:05:38;100455.50;;;3.80;78.74
73860;BME280;62197;51.632;13.700;2023-11-19T00:08:04;100437.22;;;3.81;78.46
73860;BME280;62197;51.632;13.700;2023-11-19T00:10:31;100427.47;;;3.85;78.82
73860;BME280;62197;51.632;13.700;2023-11-19T00:12:56;100428.78;;;3.92;77.80
73860;BME280;62197;51.632;13.700;2023-11-19T00:15:22;100432.25;;;3.92;78.19
73860;BME280;62197;51.632;13.700;2023-11-19T00:17:49;100436.53;;;3.93;78.01
73860;BME280;62197;51.632;13.700;2023-11-19T00:20:16;100424.25;;;3.95;78.51
73860;BME280;62197;51.632;13.700;2023-11-19T00:22:43;100417.19;;;3.97;78.50
73860;BME280;62197;51.632;13.700;2023-11-19T00:25:08;100409.47;;;3.96;78.39
73860;BME280;62197;51.632;13.700;2023-11-19T00:27:34;100400.75;;;3.97;78.15
73860;BME280;62197;51.632;13.700;2023-11-19T00:30:00;100396.47;;;3.96;78.54
73860;BME280;62197;51.632;13.700;2023-11-19T00:32:25;100399.91;;;3.96;78.54
73860;BME280;62197;51.632;13.700;2023-11-19T00:34:50;100403.53;;;3.94;78.74
73860;BME280;62197;51.632;13.700;2023-11-19T00:37:16;100401.59;;;3.97;78.66
73860;BME280;62197;51.632;13.700;2023-11-19T00:39:42;100403.94;;;4.02;78.82
73860;BME280;62197;51.632;13.700;2023-11-19T00:42:08;100392.50;;;4.05;78.82
73860;BME280;62197;51.632;13.700;2023-11-19T00:44:35;100374.19;;;4.06;79.05
73860;BME280;62197;51.632;13.700;2023-11-19T00:47:00;100367.13;;;4.08;79.30
73860;BME280;62197;51.632;13.700;2023-11-19T00:49:26;100374.19;;;4.06;79.94
73860;BME280;62197;51.632;13.700;2023-11-19T00:51:51;100368.31;;;4.03;80.91
73860;BME280;62197;51.632;13.700;2023-11-19T00:54:16;100357.00;;;4.04;81.78
73860;BME280;62197;51.632;13.700;2023-11-19T00:56:42;100349.56;;;4.12;82.20
73860;BME280;62197;51.632;13.700;2023-11-19T00:59:07;100347.97;;;4.09;82.85
73860;BME280;62197;51.632;13.700;2023-11-19T01:01:33;100329.66;;;4.11;83.44
73860;BME280;62197;51.632;13.700;2023-11-19T01:03:58;100333.47;;;4.05;83.97
73860;BME280;62197;51.632;13.700;2023-11-19T01:06:30;100337.47;;;3.96;84.34
73860;BME280;62197;51.632;13.700;2023-11-19T01:08:56;100332.44;;;3.93;84.82
73860;BME280;62197;51.632;13.700;2023-11-19T01:11:24;100332.53;;;3.92;85.37
73860;BME280;62197;51.632;13.700;2023-11-19T01:13:51;100325.56;;;3.92;85.93
73860;BME280;62197;51.632;13.700;2023-11-19T01:16:16;100309.75;;;3.95;86.52
73860;BME280;62197;51.632;13.700;2023-11-19T01:18:42;100310.97;;;3.90;86.60
73860;BME280;62197;51.632;13.700;2023-11-19T01:21:07;100305.19;;;3.85;86.47
73860;BME280;62197;51.632;13.700;2023-11-19T01:23:33;100303.25;;;3.88;86.97
73860;BME280;62197;51.632;13.700;2023-11-19T01:25:59;100282.25;;;3.91;87.38
73860;BME280;62197;51.632;13.700;2023-11-19T01:28:24;100281.50;;;3.89;87.12
73860;BME280;62197;51.632;13.700;2023-11-19T01:30:52;100271.44;;;3.83;87.38
73860;BME280;62197;51.632;13.700;2023-11-19T01:33:18;100245.72;;;3.79;87.12
73860;BME280;62197;51.632;13.700;2023-11-19T01:35:43;100241.16;;;3.82;87.79
73860;BME280;62197;51.632;13.700;2023-11-19T01:38:08;100240.50;;;3.79;88.13
73860;BME280;62197;51.632;13.700;2023-11-19T01:40:34;100223.88;;;3.81;88.00
73860;BME280;62197;51.632;13.700;2023-11-19T01:43:02;100213.84;;;3.75;88.43
73860;BME280;62197;51.632;13.700;2023-11-19T01:45:28;100201.66;;;3.76;88.36
73860;BME280;62197;51.632;13.700;2023-11-19T01:47:55;100205.94;;;3.77;88.42
73860;BME280;62197;51.632;13.700;2023-11-19T01:50:21;100188.00;;;3.72;88.27
73860;BME280;62197;51.632;13.700;2023-11-19T01:52:47;100184.22;;;3.63;88.48
73860;BME280;62197;51.632;13.700;2023-11-19T01:55:13;100191.56;;;3.57;88.85
73860;BME280;62197;51.632;13.700;2023-11-19T01:57:39;100186.34;;;3.57;88.86
73860;BME280;62197;51.632;13.700;2023-11-19T02:00:07;100187.66;;;3.50;88.76
73860;BME280;62197;51.632;13.700;2023-11-19T02:02:36;100180.41;;;3.55;88.83
73860;BME280;62197;51.632;13.700;2023-11-19T02:05:02;100164.91;;;3.53;88.88
73860;BME280;62197;51.632;13.700;2023-11-19T02:07:28;100159.97;;;3.49;89.01
73860;BME280;62197;51.632;13.700;2023-11-19T02:09:53;100142.44;;;3.52;89.05
73860;BME280;62197;51.632;13.700;2023-11-19T02:12:18;100124.31;;;3.51;88.83
73860;BME280;62197;51.632;13.700;2023-11-19T02:14:45;100121.72;;;3.51;89.13
73860;BME280;62197;51.632;13.700;2023-11-19T02:17:30;100117.72;;;3.45;88.77
73860;BME280;62197;51.632;13.700;2023-11-19T02:19:59;100126.53;;;3.43;88.89
73860;BME280;62197;51.632;13.700;2023-11-19T02:22:25;100128.13;;;3.45;88.57
73860;BME280;62197;51.632;13.700;2023-11-19T02:24:51;100123.75;;;3.46;88.69
73860;BME280;62197;51.632;13.700;2023-11-19T02:30:15;100121.81;;;3.49;88.64
73860;BME280;62197;51.632;13.700;2023-11-19T02:32:43;100113.72;;;3.40;89.37
73860;BME280;62197;51.632;13.700;2023-11-19T02:35:08;100103.22;;;3.41;89.22
73860;BME280;62197;51.632;13.700;2023-11-19T02:37:34;100094.22;;;3.47;88.82
73860;BME280;62197;51.632;13.700;2023-11-19T02:39:59;100096.72;;;3.48;88.92
73860;BME280;62197;51.632;13.700;2023-11-19T02:42:28;100084.00;;;3.44;88.97
73860;BME280;62197;51.632;13.700;2023-11-19T02:44:53;100082.91;;;3.48;89.15
73860;BME280;62197;51.632;13.700;2023-11-19T02:47:18;100073.53;;;3.45;88.78
73860;BME280;62197;51.632;13.700;2023-11-19T02:49:46;100059.59;;;3.46;89.32
73860;BME280;62197;51.632;13.700;2023-11-19T02:52:13;100041.47;;;3.45;88.83
73860;BME280;62197;51.632;13.700;2023-11-19T02:54:39;100027.75;;;3.43;89.33
73860;BME280;62197;51.632;13.700;2023-11-19T02:57:06;100031.00;;;3.46;88.90
73860;BME280;62197;51.632;13.700;2023-11-19T02:59:35;100017.53;;;3.40;89.03
73860;BME280;62197;51.632;13.700;2023-11-19T03:02:05;100008.81;;;3.41;88.72
73860;BME280;62197;51.632;13.700;2023-11-19T03:04:32;100012.97;;;3.43;88.96
73860;BME280;62197;51.632;13.700;2023-11-19T03:06:57;100017.25;;;3.44;88.97
73860;BME280;62197;51.632;13.700;2023-11-19T03:09:23;100007.03;;;3.41;89.11
73860;BME280;62197;51.632;13.700;2023-11-19T03:11:49;99992.28;;;3.42;89.01
73860;BME280;62197;51.632;13.700;2023-11-19T03:14:14;99993.31;;;3.39;89.21
73860;BME280;62197;51.632;13.700;2023-11-19T03:16:40;99984.66;;;3.39;89.38
73860;BME280;62197;51.632;13.700;2023-11-19T03:19:05;99983.94;;;3.37;89.22
73860;BME280;62197;51.632;13.700;2023-11-19T03:21:30;99975.47;;;3.33;89.81
73860;BME280;62197;51.632;13.700;2023-11-19T03:23:59;99967.31;;;3.39;89.57
73860;BME280;62197;51.632;13.700;2023-11-19T03:26:26;99962.66;;;3.44;89.64
73860;BME280;62197;51.632;13.700;2023-11-19T03:28:52;99962.66;;;3.44;89.25
73860;BME280;62197;51.632;13.700;2023-11-19T03:31:17;99954.31;;;3.39;89.69
73860;BME280;62197;51.632;13.700;2023-11-19T03:33:43;99952.44;;;3.41;89.44
73860;BME280;62197;51.632;13.700;2023-11-19T03:36:08;99942.69;;;3.45;89.53
73860;BME280;62197;51.632;13.700;2023-11-19T03:38:34;99941.56;;;3.49;89.18
73860;BME280;62197;51.632;13.700;2023-11-19T03:40:59;99928.28;;;3.53;89.44
73860;BME280;62197;51.632;13.700;2023-11-19T03:43:25;99926.22;;;3.58;88.58
73860;BME280;62197;51.632;13.700;2023-11-19T03:45:50;99924.84;;;3.65;88.48
73860;BME280;62197;51.632;13.700;2023-11-19T03:48:15;99921.84;;;3.59;88.75
73860;BME280;62197;51.632;13.700;2023-11-19T03:50:41;99909.56;;;3.61;89.01
73860;BME280;62197;51.632;13.700;2023-11-19T03:53:07;99910.41;;;3.61;88.78
73860;BME280;62197;51.632;13.700;2023-11-19T03:55:32;99912.09;;;3.62;88.93
73860;BME280;62197;51.632;13.700;2023-11-19T03:57:58;99910.00;;;3.67;88.40
73860;BME280;62197;51.632;13.700;2023-11-19T04:00:23;99899.69;;;3.66;88.60
73860;BME280;62197;51.632;13.700;2023-11-19T04:02:48;99898.84;;;3.65;88.89
73860;BME280;62197;51.632;13.700;2023-11-19T04:05:14;99899.91;;;3.63;89.00
73860;BME280;62197;51.632;13.700;2023-11-19T04:07:39;99880.88;;;3.62;89.41
73860;BME280;62197;51.632;13.700;2023-11-19T04:10:05;99875.03;;;3.72;89.11
73860;BME280;62197;51.632;13.700;2023-11-19T04:12:30;99858.81;;;3.68;89.58
73860;BME280;62197;51.632;13.700;2023-11-19T04:14:55;99850.91;;;3.70;89.38
73860;BME280;62197;51.632;13.700;2023-11-19T04:17:21;99849.34;;;3.67;89.53
73860;BME280;62197;51.632;13.700;2023-11-19T04:19:48;99849.03;;;3.72;89.27
73860;BME280;62197;51.632;13.700;2023-11-19T04:22:13;99851.75;;;3.70;89.64
73860;BME280;62197;51.632;13.700;2023-11-19T04:24:38;99850.06;;;3.69;89.81
73860;BME280;62197;51.632;13.700;2023-11-19T04:27:04;99845.69;;;3.70;89.95
73860;BME280;62197;51.632;13.700;2023-11-19T04:29:31;99852.03;;;3.65;90.02
73860;BME280;62197;51.632;13.700;2023-11-19T04:31:57;99846.94;;;3.64;90.50
73860;BME280;62197;51.632;13.700;2023-11-19T04:34:22;99845.81;;;3.68;90.47
73860;BME280;62197;51.632;13.700;2023-11-19T04:36:47;99833.44;;;3.72;90.21
73860;BME280;62197;51.632;13.700;2023-11-19T04:39:13;99834.38;;;3.71;90.42
73860;BME280;62197;51.632;13.700;2023-11-19T04:41:47;99822.94;;;3.73;90.59
73860;BME280;62197;51.632;13.700;2023-11-19T04:44:17;99821.78;;;3.77;90.40
73860;BME280;62197;51.632;13.700;2023-11-19T04:46:43;99811.38;;;3.77;90.62
73860;BME280;62197;51.632;13.700;2023-11-19T04:49:09;99808.06;;;3.75;90.65
73860;BME280;62197;51.632;13.700;2023-11-19T04:51:44;99808.34;;;3.71;91.17
73860;BME280;62197;51.632;13.700;2023-11-19T04:54:09;99798.88;;;3.70;91.45
73860;BME280;62197;51.632;13.700;2023-11-19T04:56:36;99781.50;;;3.70;90.95
73860;BME280;62197;51.632;13.700;2023-11-19T04:59:02;99792.84;;;3.69;91.47
73860;BME280;62197;51.632;13.700;2023-11-19T05:01:28;99788.19;;;3.74;91.75
73860;BME280;62197;51.632;13.700;2023-11-19T05:03:53;99776.09;;;3.73;91.77
73860;BME280;62197;51.632;13.700;2023-11-19T05:06:18;99771.84;;;3.72;91.82
73860;BME280;62197;51.632;13.700;2023-11-19T05:08:44;99770.19;;;3.71;91.93
73860;BME280;62197;51.632;13.700;2023-11-19T05:11:09;99777.88;;;3.73;92.31
73860;BME280;62197;51.632;13.700;2023-11-19T05:13:37;99763.09;;;3.73;92.11
73860;BME280;62197;51.632;13.700;2023-11-19T05:16:02;99761.53;;;3.71;92.42
73860;BME280;62197;51.632;13.700;2023-11-19T05:18:27;99757.91;;;3.73;92.70
73860;BME280;62197;51.632;13.700;2023-11-19T05:20:53;99762.16;;;3.74;92.57
73860;BME280;62197;51.632;13.700;2023-11-19T05:23:18;99750.09;;;3.73;92.72
73860;BME280;62197;51.632;13.700;2023-11-19T05:25:43;99740.63;;;3.72;93.12
73860;BME280;62197;51.632;13.700;2023-11-19T05:28:10;99741.16;;;3.77;93.07
73860;BME280;62197;51.632;13.700;2023-11-19T05:30:36;99726.69;;;3.73;93.18
73860;BME280;62197;51.632;13.700;2023-11-19T05:33:01;99721.91;;;3.80;92.82
73860;BME280;62197;51.632;13.700;2023-11-19T05:35:26;99714.31;;;3.77;93.12
73860;BME280;62197;51.632;13.700;2023-11-19T05:37:52;99708.91;;;3.80;93.17
73860;BME280;62197;51.632;13.700;2023-11-19T05:40:17;99715.13;;;3.77;93.13
73860;BME280;62197;51.632;13.700;2023-11-19T05:42:43;99702.97;;;3.78;93.51
73860;BME280;62197;51.632;13.700;2023-11-19T05:45:11;99699.31;;;3.80;93.34
73860;BME280;62197;51.632;13.700;2023-11-19T05:47:36;99692.97;;;3.84;93.57
73860;BME280;62197;51.632;13.700;2023-11-19T05:50:02;99679.88;;;3.86;93.70
73860;BME280;62197;51.632;13.700;2023-11-19T05:52:28;99691.22;;;3.85;93.68
73860;BME280;62197;51.632;13.700;2023-11-19T05:54:58;99683.63;;;3.82;93.91
73860;BME280;62197;51.632;13.700;2023-11-19T05:57:23;99670.72;;;3.80;93.67
73860;BME280;62197;51.632;13.700;2023-11-19T05:59:50;99672.16;;;3.84;93.87
73860;BME280;62197;51.632;13.700;2023-11-19T06:02:16;99667.78;;;3.85;93.90
73860;BME280;62197;51.632;13.700;2023-11-19T06:04:41;99639.06;;;3.86;94.04
73860;BME280;62197;51.632;13.700;2023-11-19T06:07:09;99645.94;;;3.87;94.04
73860;BME280;62197;51.632;13.700;2023-11-19T06:09:34;99628.66;;;3.86;94.01
73860;BME280;62197;51.632;13.700;2023-11-19T06:12:00;99614.81;;;3.86;94.36
73860;BME280;62197;51.632;13.700;2023-11-19T06:14:27;99648.75;;;3.84;94.21
73860;BME280;62197;51.632;13.700;2023-11-19T06:16:52;99683.50;;;3.83;94.19
73860;BME280;62197;51.632;13.700;2023-11-19T06:19:18;99671.13;;;3.87;94.67
73860;BME280;62197;51.632;13.700;2023-11-19T06:21:43;99663.00;;;3.91;94.67
73860;BME280;62197;51.632;13.700;2023-11-19T06:24:09;99661.13;;;3.93;94.47
73860;BME280;62197;51.632;13.700;2023-11-19T06:26:34;99666.13;;;3.96;94.42
73860;BME280;62197;51.632;13.700;2023-11-19T06:28:59;99677.34;;;3.97;94.51
73860;BME280;62197;51.632;13.700;2023-11-19T06:31:25;99679.84;;;3.98;94.60
73860;BME280;62197;51.632;13.700;2023-11-19T06:33:50;99699.00;;;3.97;94.29
73860;BME280;62197;51.632;13.700;2023-11-19T06:36:15;99667.56;;;4.01;94.63
73860;BME280;62197;51.632;13.700;2023-11-19T06:38:44;99659.31;;;4.07;94.28
73860;BME280;62197;51.632;13.700;2023-11-19T06:41:09;99655.91;;;4.06;94.78
73860;BME280;62197;51.632;13.700;2023-11-19T06:43:35;99653.28;;;4.06;94.67
73860;BME280;62197;51.632;13.700;2023-11-19T06:46:01;99641.00;;;4.08;94.65
73860;BME280;62197;51.632;13.700;2023-11-19T06:48:27;99649.44;;;4.12;94.53
73860;BME280;62197;51.632;13.700;2023-11-19T06:50:52;99636.41;;;4.12;94.72
73860;BME280;62197;51.632;13.700;2023-11-19T06:53:17;99637.56;;;4.08;94.94
73860;BME280;62197;51.632;13.700;2023-11-19T06:55:43;99625.50;;;4.07;95.03
73860;BME280;62197;51.632;13.700;2023-11-19T06:58:08;99617.38;;;4.11;94.60
73860;BME280;62197;51.632;13.700;2023-11-19T07:00:33;99642.34;;;4.14;94.75
73860;BME280;62197;51.632;13.700;2023-11-19T07:03:01;99649.22;;;4.15;94.54
73860;BME280;62197;51.632;13.700;2023-11-19T07:05:26;99638.44;;;4.19;94.98
73860;BME280;62197;51.632;13.700;2023-11-19T07:07:51;99622.00;;;4.19;95.13
73860;BME280;62197;51.632;13.700;2023-11-19T07:10:17;99624.50;;;4.20;94.89
73860;BME280;62197;51.632;13.700;2023-11-19T07:12:42;99630.19;;;4.25;94.93
73860;BME280;62197;51.632;13.700;2023-11-19T07:15:08;99635.41;;;4.25;94.78
73860;BME280;62197;51.632;13.700;2023-11-19T07:17:34;99631.66;;;4.29;94.96
73860;BME280;62197;51.632;13.700;2023-11-19T07:20:00;99619.13;;;4.35;94.88
73860;BME280;62197;51.632;13.700;2023-11-19T07:22:25;99628.50;;;4.37;94.59
73860;BME280;62197;51.632;13.700;2023-11-19T07:24:51;99628.50;;;4.37;94.85
73860;BME280;62197;51.632;13.700;2023-11-19T07:27:18;99621.28;;;4.41;94.94
73860;BME280;62197;51.632;13.700;2023-11-19T07:29:44;99639.19;;;4.45;94.97
73860;BME280;62197;51.632;13.700;2023-11-19T07:32:10;99627.50;;;4.51;95.00
73860;BME280;62197;51.632;13.700;2023-11-19T07:34:35;99630.50;;;4.57;94.62
73860;BME280;62197;51.632;13.700;2023-11-19T07:37:00;99631.94;;;4.61;95.08
73860;BME280;62197;51.632;13.700;2023-11-19T07:39:28;99632.16;;;4.70;94.74
73860;BME280;62197;51.632;13.700;2023-11-19T07:41:53;99622.25;;;4.75;95.12
73860;BME280;62197;51.632;13.700;2023-11-19T07:44:19;99616.19;;;4.74;94.76
73860;BME280;62197;51.632;13.700;2023-11-19T07:46:46;99624.63;;;4.78;94.85
73860;BME280;62197;51.632;13.700;2023-11-19T07:49:13;99614.59;;;4.84;94.78
73860;BME280;62197;51.632;13.700;2023-11-19T07:51:38;99623.13;;;4.86;94.76
73860;BME280;62197;51.632;13.700;2023-11-19T07:54:04;99628.00;;;4.91;94.77
73860;BME280;62197;51.632;13.700;2023-11-19T07:56:29;99619.00;;;4.95;94.76
73860;BME280;62197;51.632;13.700;2023-11-19T07:58:54;99628.47;;;4.96;94.95
73860;BME280;62197;51.632;13.700;2023-11-19T08:01:20;99618.06;;;4.96;95.38
73860;BME280;62197;51.632;13.700;2023-11-19T08:03:45;99615.81;;;5.03;94.82
73860;BME280;62197;51.632;13.700;2023-11-19T08:06:10;99614.06;;;5.14;94.83
73860;BME280;62197;51.632;13.700;2023-11-19T08:08:36;99621.28;;;5.22;95.12
73860;BME280;62197;51.632;13.700;2023-11-19T08:11:03;99623.69;;;5.36;94.40
73860;BME280;62197;51.632;13.700;2023-11-19T08:13:30;99617.88;;;5.44;94.74
73860;BME280;62197;51.632;13.700;2023-11-19T08:15:56;99614.44;;;5.43;94.41
73860;BME280;62197;51.632;13.700;2023-11-19T08:18:23;99626.31;;;5.47;94.29
73860;BME280;62197;51.632;13.700;2023-11-19T08:20:49;99607.09;;;5.48;94.58
73860;BME280;62197;51.632;13.700;2023-11-19T08:23:18;99617.84;;;5.77;94.32
73860;BME280;62197;51.632;13.700;2023-11-19T08:25:43;99621.69;;;5.95;94.01
73860;BME280;62197;51.632;13.700;2023-11-19T08:28:09;99615.00;;;6.14;92.71
73860;BME280;62197;51.632;13.700;2023-11-19T08:30:34;99609.81;;;6.03;92.99
73860;BME280;62197;51.632;13.700;2023-11-19T08:33:00;99622.38;;;6.09;93.41
73860;BME280;62197;51.632;13.700;2023-11-19T08:35:28;99616.75;;;6.56;92.28
73860;BME280;62197;51.632;13.700;2023-11-19T08:37:53;99620.28;;;6.35;92.53
73860;BME280;62197;51.632;13.700;2023-11-19T08:40:19;99623.72;;;6.35;92.88
73860;BME280;62197;51.632;13.700;2023-11-19T08:42:45;99618.53;;;6.56;93.22
73860;BME280;62197;51.632;13.700;2023-11-19T08:45:11;99619.66;;;6.74;92.97
73860;BME280;62197;51.632;13.700;2023-11-19T08:47:37;99611.50;;;6.88;93.20
73860;BME280;62197;51.632;13.700;2023-11-19T08:50:02;99609.13;;;7.06;93.33
73860;BME280;62197;51.632;13.700;2023-11-19T08:52:29;99612.00;;;7.24;93.07
73860;BME280;62197;51.632;13.700;2023-11-19T08:54:54;99612.25;;;7.51;93.06
73860;BME280;62197;51.632;13.700;2023-11-19T08:57:20;99608.22;;;7.68;92.70
73860;BME280;62197;51.632;13.700;2023-11-19T08:59:45;99614.41;;;7.67;92.51
73860;BME280;62197;51.632;13.700;2023-11-19T09:02:11;99600.66;;;7.75;92.80
73860;BME280;62197;51.632;13.700;2023-11-19T09:04:36;99597.34;;;7.82;92.64
73860;BME280;62197;51.632;13.700;2023-11-19T09:07:02;99603.53;;;7.81;92.68
73860;BME280;62197;51.632;13.700;2023-11-19T09:09:28;99603.97;;;7.86;93.11
73860;BME280;62197;51.632;13.700;2023-11-19T09:11:53;99616.44;;;8.04;92.25
73860;BME280;62197;51.632;13.700;2023-11-19T09:14:19;99613.31;;;8.29;91.52
73860;BME280;62197;51.632;13.700;2023-11-19T09:16:49;99613.50;;;8.47;91.32
73860;BME280;62197;51.632;13.700;2023-11-19T09:19:14;99608.78;;;8.89;90.79
73860;BME280;62197;51.632;13.700;2023-11-19T09:21:40;99599.78;;;9.01;89.70
73860;BME280;62197;51.632;13.700;2023-11-19T09:24:05;99611.78;;;9.13;89.51
73860;BME280;62197;51.632;13.700;2023-11-19T09:26:32;99616.47;;;9.19;88.71
73860;BME280;62197;51.632;13.700;2023-11-19T09:28:57;99609.28;;;9.21;88.64
73860;BME280;62197;51.632;13.700;2023-11-19T09:31:22;99595.72;;;9.36;88.87
73860;BME280;62197;51.632;13.700;2023-11-19T09:33:48;99619.91;;;9.29;88.54
73860;BME280;62197;51.632;13.700;2023-11-19T09:36:13;99601.25;;;9.33;89.34
73860;BME280;62197;51.632;13.700;2023-11-19T09:38:44;99605.88;;;9.48;88.76
73860;BME280;62197;51.632;13.700;2023-11-19T09:41:11;99596.19;;;9.58;87.60
73860;BME280;62197;51.632;13.700;2023-11-19T09:43:39;99597.50;;;9.72;88.31
73860;BME280;62197;51.632;13.700;2023-11-19T09:46:06;99603.53;;;9.82;87.69
73860;BME280;62197;51.632;13.700;2023-11-19T09:48:37;99602.50;;;9.93;87.09
73860;BME280;62197;51.632;13.700;2023-11-19T09:51:04;99603.41;;;10.02;86.75
73860;BME280;62197;51.632;13.700;2023-11-19T09:53:36;99605.06;;;10.03;86.96
73860;BME280;62197;51.632;13.700;2023-11-19T09:56:03;99606.34;;;9.99;86.82
73860;BME280;62197;51.632;13.700;2023-11-19T09:58:32;99586.03;;;9.91;86.43
73860;BME280;62197;51.632;13.700;2023-11-19T10:00:58;99594.47;;;9.94;86.43
73860;BME280;62197;51.632;13.700;2023-11-19T10:03:28;99597.56;;;10.08;85.49
73860;BME280;62197;51.632;13.700;2023-11-19T10:05:57;99589.22;;;10.22;85.68
73860;BME280;62197;51.632;13.700;2023-11-19T10:08:23;99592.22;;;10.45;84.66
73860;BME280;62197;51.632;13.700;2023-11-19T10:10:48;99601.16;;;10.52;83.96
73860;BME280;62197;51.632;13.700;2023-11-19T10:13:14;99580.28;;;10.68;84.05
73860;BME280;62197;51.632;13.700;2023-11-19T10:15:40;99597.09;;;10.75;83.12
73860;BME280;62197;51.632;13.700;2023-11-19T10:18:05;99592.44;;;10.87;81.72
73860;BME280;62197;51.632;13.700;2023-11-19T10:20:37;99589.75;;;10.79;81.30
73860;BME280;62197;51.632;13.700;2023-11-19T10:23:02;99600.63;;;10.66;82.21
73860;BME280;62197;51.632;13.700;2023-11-19T10:25:28;99584.25;;;10.72;82.30
73860;BME280;62197;51.632;13.700;2023-11-19T10:27:54;99588.91;;;10.78;82.38
73860;BME280;62197;51.632;13.700;2023-11-19T10:30:24;99591.63;;;10.69;82.32
73860;BME280;62197;51.632;13.700;2023-11-19T10:35:33;99586.59;;;10.57;82.61
73860;BME280;62197;51.632;13.700;2023-11-19T10:38:13;99580.56;;;10.65;81.57
73860;BME280;62197;51.632;13.700;2023-11-19T10:40:40;99588.38;;;10.75;81.44
73860;BME280;62197;51.632;13.700;2023-11-19T10:43:06;99585.69;;;10.84;81.56
73860;BME280;62197;51.632;13.700;2023-11-19T10:45:33;99570.25;;;10.89;80.45
73860;BME280;62197;51.632;13.700;2023-11-19T10:47:59;99574.41;;;11.00;80.40
73860;BME280;62197;51.632;13.700;2023-11-19T10:50:24;99570.19;;;11.07;79.44
73860;BME280;62197;51.632;13.700;2023-11-19T10:52:50;99568.69;;;11.31;79.37
73860;BME280;62197;51.632;13.700;2023-11-19T10:55:18;99557.97;;;12.08;76.49
73860;BME280;62197;51.632;13.700;2023-11-19T10:57:49;99569.59;;;12.88;73.44
73860;BME280;62197;51.632;13.700;2023-11-19T11:00:18;99564.97;;;12.82;72.15
73860;BME280;62197;51.632;13.700;2023-11-19T11:02:45;99566.72;;;13.39;70.34
73860;BME280;62197;51.632;13.700;2023-11-19T11:05:14;99556.50;;;13.28;69.02
73860;BME280;62197;51.632;13.700;2023-11-19T11:07:44;99548.91;;;13.33;69.89
73860;BME280;62197;51.632;13.700;2023-11-19T11:10:10;99552.94;;;12.80;72.06
73860;BME280;62197;51.632;13.700;2023-11-19T11:12:37;99551.44;;;12.93;70.88
73860;BME280;62197;51.632;13.700;2023-11-19T11:15:07;99564.31;;;13.60;69.18
73860;BME280;62197;51.632;13.700;2023-11-19T11:17:33;99566.78;;;13.62;68.61
73860;BME280;62197;51.632;13.700;2023-11-19T11:19:59;99553.88;;;13.28;68.82
73860;BME280;62197;51.632;13.700;2023-11-19T11:22:25;99573.72;;;12.91;68.90
73860;BME280;62197;51.632;13.700;2023-11-19T11:25:09;99564.94;;;13.07;69.55
73860;BME280;62197;51.632;13.700;2023-11-19T11:30:49;99555.38;;;12.16;72.82
73860;BME280;62197;51.632;13.700;2023-11-19T11:33:44;99561.72;;;11.81;74.91
73860;BME280;62197;51.632;13.700;2023-11-19T11:36:21;99565.59;;;11.69;75.31
73860;BME280;62197;51.632;13.700;2023-11-19T11:38:50;99557.00;;;11.67;75.70
73860;BME280;62197;51.632;13.700;2023-11-19T11:41:17;99553.66;;;11.99;75.27
73860;BME280;62197;51.632;13.700;2023-11-19T11:43:52;99553.22;;;13.09;71.79
73860;BME280;62197;51.632;13.700;2023-11-19T11:49:05;99556.56;;;12.46;73.14
73860;BME280;62197;51.632;13.700;2023-11-19T11:54:09;99555.41;;;12.41;72.84
73860;BME280;62197;51.632;13.700;2023-11-19T11:56:38;99553.91;;;12.22;74.84
73860;BME280;62197;51.632;13.700;2023-11-19T11:59:19;99558.22;;;12.80;72.78
73860;BME280;62197;51.632;13.700;2023-11-19T12:01:59;99537.78;;;14.38;65.82
73860;BME280;62197;51.632;13.700;2023-11-19T12:04:28;99547.63;;;14.90;64.12
73860;BME280;62197;51.632;13.700;2023-11-19T12:07:23;99550.13;;;15.65;61.59
73860;BME280;62197;51.632;13.700;2023-11-19T12:10:08;99551.50;;;15.61;61.16
73860;BME280;62197;51.632;13.700;2023-11-19T12:12:36;99537.25;;;15.62;61.07
73860;BME280;62197;51.632;13.700;2023-11-19T12:20:07;99537.72;;;16.23;57.36
73860;BME280;62197;51.632;13.700;2023-11-19T12:22:38;99523.22;;;16.62;55.44
73860;BME280;62197;51.632;13.700;2023-11-19T12:25:05;99532.19;;;15.82;56.80
73860;BME280;62197;51.632;13.700;2023-11-19T12:27:32;99529.41;;;16.05;55.44
73860;BME280;62197;51.632;13.700;2023-11-19T12:29:59;99548.28;;;14.54;60.00
73860;BME280;62197;51.632;13.700;2023-11-19T12:32:24;99546.38;;;15.30;57.40
73860;BME280;62197;51.632;13.700;2023-11-19T12:34:50;99542.53;;;15.62;56.11
73860;BME280;62197;51.632;13.700;2023-11-19T12:37:15;99546.22;;;16.33;55.10
73860;BME280;62197;51.632;13.700;2023-11-19T12:39:40;99542.53;;;15.18;57.75
73860;BME280;62197;51.632;13.700;2023-11-19T12:42:06;99536.78;;;16.31;55.18
73860;BME280;62197;51.632;13.700;2023-11-19T12:44:31;99537.63;;;16.10;56.49
73860;BME280;62197;51.632;13.700;2023-11-19T12:47:03;99541.34;;;15.35;59.69
73860;BME280;62197;51.632;13.700;2023-11-19T12:49:29;99538.25;;;16.54;56.05
73860;BME280;62197;51.632;13.700;2023-11-19T12:51:55;99530.06;;;16.13;56.67
73860;BME280;62197;51.632;13.700;2023-11-19T12:54:20;99534.53;;;16.06;57.29
73860;BME280;62197;51.632;13.700;2023-11-19T12:56:52;99541.09;;;16.10;57.02
73860;BME280;62197;51.632;13.700;2023-11-19T12:59:18;99532.69;;;16.07;56.18
73860;BME280;62197;51.632;13.700;2023-11-19T13:01:54;99537.44;;;15.61;57.38
73860;BME280;62197;51.632;13.700;2023-11-19T13:04:19;99545.63;;;14.01;62.61
73860;BME280;62197;51.632;13.700;2023-11-19T13:06:48;99541.53;;;14.21;62.65
73860;BME280;62197;51.632;13.700;2023-11-19T13:09:23;99526.78;;;15.90;57.18
73860;BME280;62197;51.632;13.700;2023-11-19T13:11:51;99536.16;;;16.07;56.06